Thomson Majesty — 9HA2188 — position and weather

sailwx.info

Track history (hours):
 
Tides and Currents Weather Stations Pressure Air Temp Water Temp Dewpoint Dewpoint Depression Visibility Wind Speed Wind Dir Waves Ship Positions

Thomson Majesty

Last reported at 2016-May-05 09:31 UTC. Time now 2016-May-05 10:22 UTC.
Position N 43°42' E 007°19'.

Length 207 m; draft 6.2 m.

Type: Ship. MMSI: 248124000.

Date/timePositionNaut miles runAvg speedWind from/ knotsBaromVisibWave heightAir tempDewpointWater temp
2016-May-05 09:31N 43°42' E 007°19'0 0.0
2016-May-05 08:31N 43°42' E 007°19'0 0.0
2016-May-05 07:31N 43°42' E 007°19'0 0.0
2016-May-05 06:19N 43°42' E 007°19'0 0.0
2016-May-05 05:31N 43°42' E 007°19'0 0.0
2016-May-05 04:31N 43°42' E 007°19'6 6.4
2016-May-05 03:33N 43°36' E 007°15'1111.0
2016-May-05 02:33N 43°27' E 007°06'1111.2
2016-May-05 01:33N 43°19' E 006°56'1111.3
2016-May-05 00:33N 43°10' E 006°46'1111.3
2016-May-04 23:33N 43°02' E 006°36'1111.3
2016-May-04 22:33N 42°53' E 006°26'3811.5
2016-May-04 19:14N 42°35' E 005°40'2211.9
2016-May-04 17:23N 42°26' E 005°13'1412.0
2016-May-04 16:16N 42°20' E 004°57'8411.9
2016-May-04 09:10N 41°39' E 003°18'712.2
2016-May-04 08:33N 41°32' E 003°14'1212.0
2016-May-04 07:33N 41°21' E 003°06'1312.7
2016-May-04 06:33N 41°10' E 002°58'1312.9
2016-May-04 05:33N 40°58' E 002°54'1612.8
2016-May-04 04:18N 40°43' E 002°45'1013.5
2016-May-04 03:33N 40°34' E 002°41'1413.7
2016-May-04 02:34N 40°21' E 002°35'1413.6
2016-May-04 01:33N 40°08' E 002°30'1413.6
2016-May-04 00:33N 39°55' E 002°24'1413.4
2016-May-03 23:33N 39°42' E 002°18'1211.6
2016-May-03 22:33N 39°31' E 002°21'1111.1
2016-May-03 21:33N 39°28' E 002°35'5 5.3
2016-May-03 20:32N 39°33' E 002°38'0 0.0
2016-May-03 19:32N 39°33' E 002°38'0 0.0
2016-May-03 18:32N 39°33' E 002°38'0 0.0
2016-May-03 17:32N 39°33' E 002°38'0 0.0
2016-May-03 16:32N 39°33' E 002°38'0 0.0
2016-May-03 15:32N 39°33' E 002°38'0 0.0
2016-May-03 14:32N 39°33' E 002°38'0 0.0
2016-May-03 13:32N 39°33' E 002°38'0 0.0
2016-May-03 12:32N 39°33' E 002°38'0 0.0
2016-May-03 11:32N 39°33' E 002°38'0 0.0
2016-May-03 10:32N 39°33' E 002°38'0 0.0
2016-May-03 09:33N 39°33' E 002°38'0 0.0
2016-May-03 08:33N 39°33' E 002°38'0 0.0
2016-May-03 07:33N 39°33' E 002°38'0 0.0
2016-May-03 06:33N 39°33' E 002°38'0 0.0
2016-May-03 05:33N 39°33' E 002°38'0 0.0
2016-May-03 04:33N 39°33' E 002°38'0 0.0
2016-May-03 03:33N 39°33' E 002°38'7 7.0
2016-May-03 02:33N 39°27' E 002°34'1313.1
2016-May-03 01:33N 39°26' E 002°17'1413.6
2016-May-03 00:33N 39°26' E 001°59'1313.4
2016-May-02 23:34N 39°26' E 001°42'1313.4
2016-May-02 22:34N 39°26' E 001°24'1313.4
2016-May-02 21:33N 39°25' E 001°07'5313.3
2016-May-02 17:33N 39°25' W 000°02'1212.2
2016-May-02 16:33N 39°26' W 000°17'2 2.2
2016-May-02 15:33N 39°27' W 000°20'0 0.0
2016-May-02 14:33N 39°27' W 000°20'0 0.0
2016-May-02 13:33N 39°27' W 000°20'0 0.0
2016-May-02 12:33N 39°27' W 000°20'0 0.0
2016-May-02 11:33N 39°27' W 000°20'0 0.0
2016-May-02 10:33N 39°27' W 000°20'0 0.0
2016-May-02 09:33N 39°27' W 000°20'0 0.0
2016-May-02 08:33N 39°27' W 000°20'0 0.0
2016-May-02 07:33N 39°27' W 000°20'0 0.0
2016-May-02 06:33N 39°27' W 000°20'0 0.0
2016-May-02 05:33N 39°27' W 000°20'1111.1
2016-May-02 04:32N 39°20' W 000°09'7610.5
2016-May-01 21:18N 38°04' W 000°04'1013.6
2016-May-01 20:33N 37°56' W 000°11'1313.0
2016-May-01 19:33N 37°45' W 000°21'1312.8
2016-May-01 18:33N 37°34' W 000°30'1111.3
2016-May-01 17:33N 37°32' W 000°44'1311.6
2016-May-01 16:28N 37°34' W 000°59'1 1.6
2016-May-01 15:32N 37°36' W 000°59'0 0.0
2016-May-01 14:32N 37°36' W 000°59'0 0.0
2016-May-01 13:32N 37°36' W 000°59'0 0.0
2016-May-01 12:32N 37°36' W 000°59'0 0.0
2016-May-01 11:32N 37°36' W 000°59'0 0.0
2016-May-01 10:26N 37°36' W 000°59'0 0.0
2016-May-01 09:32N 37°36' W 000°59'0 0.0
2016-May-01 08:26N 37°36' W 000°59'0 0.0
2016-May-01 07:26N 37°36' W 000°59'0 0.0
2016-May-01 06:32N 37°36' W 000°59'0 0.5
2016-May-01 05:33N 37°35' W 000°59'21415.2
2016-Apr-30 15:27N 36°07' W 005°02'1516.4
2016-Apr-30 14:34N 36°05' W 005°20'4 3.7
2016-Apr-30 13:31N 36°09' W 005°22'0 0.0
2016-Apr-30 12:22N 36°09' W 005°22'0 0.0
2016-Apr-30 11:28N 36°09' W 005°22'0 0.0
2016-Apr-30 10:28N 36°09' W 005°22'0 0.0
2016-Apr-30 09:28N 36°09' W 005°22'0 0.0
2016-Apr-30 08:28N 36°09' W 005°22'0 0.0
2016-Apr-30 07:28N 36°09' W 005°22'0 0.0
2016-Apr-30 06:23N 36°09' W 005°22'911.3
2016-Apr-30 05:34N 35°59' W 005°22'  
2016-Apr-27 12:04N 30°29' W 016°24'5 9.5
2016-Apr-27 11:34N 30°24' W 016°24'41 9.5
2016-Apr-27 07:15N 29°44' W 016°17'6 9.1
2016-Apr-27 06:33N 29°38' W 016°16'10 9.1
2016-Apr-27 05:30N 29°28' W 016°14'9 9.2
2016-Apr-27 04:28N 29°19' W 016°13'9 9.2
2016-Apr-27 03:32N 29°10' W 016°11'9 9.1
2016-Apr-27 02:33N 29°01' W 016°10'9 9.3
2016-Apr-27 01:33N 28°52' W 016°09'9 9.1
2016-Apr-27 00:33N 28°43' W 016°07'9 8.7
2016-Apr-26 23:33N 28°35' W 016°05'8 7.6
2016-Apr-26 22:33N 28°29' W 016°10'4 3.3
2016-Apr-26 21:28N 28°28' W 016°15'0 0.0
2016-Apr-26 20:28N 28°28' W 016°15'0 0.0
2016-Apr-26 19:25N 28°28' W 016°15'0 0.0
2016-Apr-26 18:31N 28°28' W 016°15'0 0.0
2016-Apr-26 17:31N 28°28' W 016°15'0 0.0
2016-Apr-26 16:28N 28°28' W 016°15'0 0.0
2016-Apr-26 15:31N 28°28' W 016°15'0 0.0
2016-Apr-26 14:19N 28°28' W 016°15'0 0.0
2016-Apr-26 13:31N 28°28' W 016°15'0 0.0
2016-Apr-26 12:31N 28°28' W 016°15'0 0.0
2016-Apr-26 11:22N 28°28' W 016°15'0 0.0
2016-Apr-26 10:22N 28°28' W 016°15'0 0.0
2016-Apr-26 09:25N 28°28' W 016°15'0 0.0
2016-Apr-26 08:25N 28°28' W 016°15'0 0.0
2016-Apr-26 07:28N 28°28' W 016°15'0 0.0
2016-Apr-26 06:25N 28°28' W 016°15'0 0.0
2016-Apr-26 05:28N 28°28' W 016°15'0 0.0
2016-Apr-26 04:28N 28°28' W 016°15'6 6.8
2016-Apr-26 03:33N 28°26' W 016°08'9 8.9
2016-Apr-26 02:33N 28°26' W 015°58'9 9.2
2016-Apr-26 01:33N 28°31' W 015°49'9 8.8
2016-Apr-26 00:33N 28°36' W 015°41'1110.6
2016-Apr-25 23:33N 28°27' W 015°33'1010.3
2016-Apr-25 22:34N 28°19' W 015°27'1010.2
2016-Apr-25 21:33N 28°09' W 015°22'3 2.3
2016-Apr-25 20:23N 28°08' W 015°25'0 0.0
2016-Apr-25 19:26N 28°08' W 015°25'0 0.0
2016-Apr-25 18:26N 28°08' W 015°25'0 0.0
2016-Apr-25 17:26N 28°08' W 015°25'0 0.0
2016-Apr-25 16:26N 28°08' W 015°25'0 0.0
2016-Apr-25 15:29N 28°08' W 015°25'0 0.0
2016-Apr-25 14:29N 28°08' W 015°25'0 0.0
2016-Apr-25 13:33N 28°08' W 015°25'0 0.0
2016-Apr-25 12:33N 28°08' W 015°25'0 0.0
2016-Apr-25 11:33N 28°08' W 015°25'0 0.0
2016-Apr-25 10:33N 28°08' W 015°25'0 0.0
2016-Apr-25 09:33N 28°08' W 015°25'  
Track history (hours):
 
Tides and Currents Weather Stations Pressure Air Temp Water Temp Dewpoint Dewpoint Depression Visibility Wind Speed Wind Dir Waves Ship Positions

Thomson Majesty

Last reported at 2016-May-05 09:31 UTC. Time now 2016-May-05 10:22 UTC.
Position N 43°42' E 007°19'.

Length 207 m; draft 6.2 m.

Type: Ship. MMSI: 248124000.

Date/timePositionNaut miles runAvg speedWind from/ knotsBaromVisibWave heightAir tempDewpointWater temp
2016-May-05 09:31N 43°42' E 007°19'0 0.0
2016-May-05 08:31N 43°42' E 007°19'0 0.0
2016-May-05 07:31N 43°42' E 007°19'0 0.0
2016-May-05 06:19N 43°42' E 007°19'0 0.0
2016-May-05 05:31N 43°42' E 007°19'0 0.0
2016-May-05 04:31N 43°42' E 007°19'6 6.4
2016-May-05 03:33N 43°36' E 007°15'1111.0
2016-May-05 02:33N 43°27' E 007°06'1111.2
2016-May-05 01:33N 43°19' E 006°56'1111.3
2016-May-05 00:33N 43°10' E 006°46'1111.3
2016-May-04 23:33N 43°02' E 006°36'1111.3
2016-May-04 22:33N 42°53' E 006°26'3811.5
2016-May-04 19:14N 42°35' E 005°40'2211.9
2016-May-04 17:23N 42°26' E 005°13'1412.0
2016-May-04 16:16N 42°20' E 004°57'8411.9
2016-May-04 09:10N 41°39' E 003°18'712.2
2016-May-04 08:33N 41°32' E 003°14'1212.0
2016-May-04 07:33N 41°21' E 003°06'1312.7
2016-May-04 06:33N 41°10' E 002°58'1312.9
2016-May-04 05:33N 40°58' E 002°54'1612.8
2016-May-04 04:18N 40°43' E 002°45'1013.5
2016-May-04 03:33N 40°34' E 002°41'1413.7
2016-May-04 02:34N 40°21' E 002°35'1413.6
2016-May-04 01:33N 40°08' E 002°30'1413.6
2016-May-04 00:33N 39°55' E 002°24'1413.4
2016-May-03 23:33N 39°42' E 002°18'1211.6
2016-May-03 22:33N 39°31' E 002°21'1111.1
2016-May-03 21:33N 39°28' E 002°35'5 5.3
2016-May-03 20:32N 39°33' E 002°38'0 0.0
2016-May-03 19:32N 39°33' E 002°38'0 0.0
2016-May-03 18:32N 39°33' E 002°38'0 0.0
2016-May-03 17:32N 39°33' E 002°38'0 0.0
2016-May-03 16:32N 39°33' E 002°38'0 0.0
2016-May-03 15:32N 39°33' E 002°38'0 0.0
2016-May-03 14:32N 39°33' E 002°38'0 0.0
2016-May-03 13:32N 39°33' E 002°38'0 0.0
2016-May-03 12:32N 39°33' E 002°38'0 0.0
2016-May-03 11:32N 39°33' E 002°38'0 0.0
2016-May-03 10:32N 39°33' E 002°38'0 0.0
2016-May-03 09:33N 39°33' E 002°38'0 0.0
2016-May-03 08:33N 39°33' E 002°38'0 0.0
2016-May-03 07:33N 39°33' E 002°38'0 0.0
2016-May-03 06:33N 39°33' E 002°38'0 0.0
2016-May-03 05:33N 39°33' E 002°38'0 0.0
2016-May-03 04:33N 39°33' E 002°38'0 0.0
2016-May-03 03:33N 39°33' E 002°38'7 7.0
2016-May-03 02:33N 39°27' E 002°34'1313.1
2016-May-03 01:33N 39°26' E 002°17'1413.6
2016-May-03 00:33N 39°26' E 001°59'1313.4
2016-May-02 23:34N 39°26' E 001°42'1313.4
2016-May-02 22:34N 39°26' E 001°24'1313.4
2016-May-02 21:33N 39°25' E 001°07'5313.3
2016-May-02 17:33N 39°25' W 000°02'1212.2
2016-May-02 16:33N 39°26' W 000°17'2 2.2
2016-May-02 15:33N 39°27' W 000°20'0 0.0
2016-May-02 14:33N 39°27' W 000°20'0 0.0
2016-May-02 13:33N 39°27' W 000°20'0 0.0
2016-May-02 12:33N 39°27' W 000°20'0 0.0
2016-May-02 11:33N 39°27' W 000°20'0 0.0
2016-May-02 10:33N 39°27' W 000°20'0 0.0
2016-May-02 09:33N 39°27' W 000°20'0 0.0
2016-May-02 08:33N 39°27' W 000°20'0 0.0
2016-May-02 07:33N 39°27' W 000°20'0 0.0
2016-May-02 06:33N 39°27' W 000°20'0 0.0
2016-May-02 05:33N 39°27' W 000°20'1111.1
2016-May-02 04:32N 39°20' W 000°09'7610.5
2016-May-01 21:18N 38°04' W 000°04'1013.6
2016-May-01 20:33N 37°56' W 000°11'1313.0
2016-May-01 19:33N 37°45' W 000°21'1312.8
2016-May-01 18:33N 37°34' W 000°30'1111.3
2016-May-01 17:33N 37°32' W 000°44'1311.6
2016-May-01 16:28N 37°34' W 000°59'1 1.6
2016-May-01 15:32N 37°36' W 000°59'0 0.0
2016-May-01 14:32N 37°36' W 000°59'0 0.0
2016-May-01 13:32N 37°36' W 000°59'0 0.0
2016-May-01 12:32N 37°36' W 000°59'0 0.0
2016-May-01 11:32N 37°36' W 000°59'0 0.0
2016-May-01 10:26N 37°36' W 000°59'0 0.0
2016-May-01 09:32N 37°36' W 000°59'0 0.0
2016-May-01 08:26N 37°36' W 000°59'0 0.0
2016-May-01 07:26N 37°36' W 000°59'0 0.0
2016-May-01 06:32N 37°36' W 000°59'0 0.5
2016-May-01 05:33N 37°35' W 000°59'21415.2
2016-Apr-30 15:27N 36°07' W 005°02'1516.4
2016-Apr-30 14:34N 36°05' W 005°20'4 3.7
2016-Apr-30 13:31N 36°09' W 005°22'0 0.0
2016-Apr-30 12:22N 36°09' W 005°22'0 0.0
2016-Apr-30 11:28N 36°09' W 005°22'0 0.0
2016-Apr-30 10:28N 36°09' W 005°22'0 0.0
2016-Apr-30 09:28N 36°09' W 005°22'0 0.0
2016-Apr-30 08:28N 36°09' W 005°22'0 0.0
2016-Apr-30 07:28N 36°09' W 005°22'0 0.0
2016-Apr-30 06:23N 36°09' W 005°22'911.3
2016-Apr-30 05:34N 35°59' W 005°22'  
2016-Apr-27 12:04N 30°29' W 016°24'5 9.5
2016-Apr-27 11:34N 30°24' W 016°24'41 9.5
2016-Apr-27 07:15N 29°44' W 016°17'6 9.1
2016-Apr-27 06:33N 29°38' W 016°16'10 9.1
2016-Apr-27 05:30N 29°28' W 016°14'9 9.2
2016-Apr-27 04:28N 29°19' W 016°13'9 9.2
2016-Apr-27 03:32N 29°10' W 016°11'9 9.1
2016-Apr-27 02:33N 29°01' W 016°10'9 9.3
2016-Apr-27 01:33N 28°52' W 016°09'9 9.1
2016-Apr-27 00:33N 28°43' W 016°07'9 8.7
2016-Apr-26 23:33N 28°35' W 016°05'8 7.6
2016-Apr-26 22:33N 28°29' W 016°10'4 3.3
2016-Apr-26 21:28N 28°28' W 016°15'0 0.0
2016-Apr-26 20:28N 28°28' W 016°15'0 0.0
2016-Apr-26 19:25N 28°28' W 016°15'0 0.0
2016-Apr-26 18:31N 28°28' W 016°15'0 0.0
2016-Apr-26 17:31N 28°28' W 016°15'0 0.0
2016-Apr-26 16:28N 28°28' W 016°15'0 0.0
2016-Apr-26 15:31N 28°28' W 016°15'0 0.0
2016-Apr-26 14:19N 28°28' W 016°15'0 0.0
2016-Apr-26 13:31N 28°28' W 016°15'0 0.0
2016-Apr-26 12:31N 28°28' W 016°15'0 0.0
2016-Apr-26 11:22N 28°28' W 016°15'0 0.0
2016-Apr-26 10:22N 28°28' W 016°15'0 0.0
2016-Apr-26 09:25N 28°28' W 016°15'0 0.0
2016-Apr-26 08:25N 28°28' W 016°15'0 0.0
2016-Apr-26 07:28N 28°28' W 016°15'0 0.0
2016-Apr-26 06:25N 28°28' W 016°15'0 0.0
2016-Apr-26 05:28N 28°28' W 016°15'0 0.0
2016-Apr-26 04:28N 28°28' W 016°15'6 6.8
2016-Apr-26 03:33N 28°26' W 016°08'9 8.9
2016-Apr-26 02:33N 28°26' W 015°58'9 9.2
2016-Apr-26 01:33N 28°31' W 015°49'9 8.8
2016-Apr-26 00:33N 28°36' W 015°41'1110.6
2016-Apr-25 23:33N 28°27' W 015°33'1010.3
2016-Apr-25 22:34N 28°19' W 015°27'1010.2
2016-Apr-25 21:33N 28°09' W 015°22'3 2.3
2016-Apr-25 20:23N 28°08' W 015°25'0 0.0
2016-Apr-25 19:26N 28°08' W 015°25'0 0.0
2016-Apr-25 18:26N 28°08' W 015°25'0 0.0
2016-Apr-25 17:26N 28°08' W 015°25'0 0.0
2016-Apr-25 16:26N 28°08' W 015°25'0 0.0
2016-Apr-25 15:29N 28°08' W 015°25'0 0.0
2016-Apr-25 14:29N 28°08' W 015°25'0 0.0
2016-Apr-25 13:33N 28°08' W 015°25'0 0.0
2016-Apr-25 12:33N 28°08' W 015°25'0 0.0
2016-Apr-25 11:33N 28°08' W 015°25'0 0.0
2016-Apr-25 10:33N 28°08' W 015°25'0 0.0
2016-Apr-25 09:33N 28°08' W 015°25'  

Dump ship's entire track history